createdAt,value
2018-03-17T16:47:43.195Z,14.07
2018-03-17T16:50:12.457Z,15.07
2018-03-17T16:52:41.506Z,14.50
2018-03-17T16:55:10.466Z,14.10
2018-03-17T16:57:40.730Z,13.97
2018-03-17T17:00:09.649Z,13.70
2018-03-17T17:02:53.458Z,14.17
2018-03-17T17:05:22.754Z,14.00
2018-03-17T17:07:52.145Z,13.50
2018-03-17T17:10:21.066Z,14.93
2018-03-17T17:12:50.311Z,14.90
2018-03-17T17:15:19.335Z,15.40
2018-03-17T17:17:48.384Z,13.93
2018-03-17T17:20:17.638Z,13.47
2018-03-17T17:22:47.372Z,14.30
2018-03-17T17:25:16.270Z,14.83
2018-03-17T17:27:45.392Z,16.23
2018-03-17T17:30:14.358Z,12.83
2018-03-17T17:32:43.819Z,13.10
2018-03-17T17:35:12.770Z,13.43
2018-03-17T17:37:41.834Z,13.77
2018-03-17T17:40:13.557Z,15.23
2018-03-17T17:42:43.210Z,13.70
2018-03-17T17:46:15.506Z,13.27
2018-03-17T17:48:45.102Z,14.87
2018-03-17T17:51:14.069Z,13.67
2018-03-17T17:53:43.166Z,15.50
2018-03-17T17:56:12.143Z,17.43
2018-03-17T17:58:41.122Z,17.87
2018-03-17T18:01:10.427Z,14.20
2018-03-17T18:03:39.347Z,14.30
2018-03-17T18:06:08.357Z,14.13
2018-03-17T18:08:39.024Z,13.60
2018-03-17T18:11:07.947Z,14.80
2018-03-17T18:13:36.872Z,15.80
2018-03-17T18:16:07.191Z,14.57
2018-03-17T18:18:36.156Z,14.97
2018-03-17T18:21:08.797Z,14.73
2018-03-17T18:23:39.099Z,15.20
2018-03-17T18:26:08.114Z,14.70
2018-03-17T18:28:37.088Z,14.90
2018-03-17T18:31:07.363Z,15.23
2018-03-17T18:33:36.217Z,14.10
2018-03-17T18:36:05.987Z,13.40
2018-03-17T18:38:34.984Z,12.40
2018-03-17T18:41:04.731Z,14.00
2018-03-17T18:43:35.433Z,14.37
2018-03-17T18:46:05.737Z,14.07
2018-03-17T18:48:34.734Z,16.13
2018-03-17T18:51:05.456Z,14.80
2018-03-17T18:53:34.524Z,13.93
2018-03-17T18:56:06.007Z,14.47
2018-03-17T18:58:36.288Z,15.90
2018-03-17T19:01:05.409Z,15.57
2018-03-17T19:03:34.336Z,14.87
2018-03-17T19:06:04.631Z,14.43
2018-03-17T19:08:34.104Z,15.17
2018-03-17T19:11:03.677Z,14.70
2018-03-17T19:13:32.884Z,15.10
2018-03-17T19:16:02.683Z,16.70
2018-03-17T19:18:32.424Z,14.47
2018-03-17T19:21:01.741Z,14.50
2018-03-17T19:23:30.850Z,18.90
2018-03-17T19:26:04.980Z,13.97
2018-03-17T19:28:34.538Z,13.67
2018-03-17T19:31:04.627Z,16.23
2018-03-17T19:33:33.713Z,14.40
2018-03-17T19:36:03.794Z,13.80
2018-03-17T19:38:33.273Z,14.90
2018-03-17T19:41:03.794Z,14.47
2018-03-17T19:43:32.925Z,14.30
2018-03-17T19:46:03.352Z,13.77
2018-03-17T19:48:32.546Z,13.97
2018-03-17T19:51:02.467Z,14.73
2018-03-17T19:53:32.623Z,15.27
2018-03-17T19:56:04.723Z,15.20
2018-03-17T19:58:33.960Z,13.70
2018-03-17T20:01:03.332Z,13.83
2018-03-17T20:03:32.468Z,14.33
2018-03-17T20:06:03.836Z,13.83
2018-03-17T20:08:32.886Z,14.57
2018-03-17T20:11:02.487Z,13.33
2018-03-17T20:13:32.277Z,13.57
2018-03-17T20:16:05.468Z,14.10
2018-03-17T20:18:34.656Z,13.53
2018-03-17T20:21:05.365Z,14.43
2018-03-17T20:23:35.173Z,14.40
2018-03-17T20:26:05.428Z,14.83
2018-03-17T20:28:34.775Z,14.93
2018-03-17T20:31:04.869Z,14.93
2018-03-17T20:33:33.943Z,14.87
2018-03-17T20:36:04.418Z,14.63
2018-03-17T20:38:33.518Z,15.20
2018-03-17T20:41:03.283Z,14.40
2018-03-17T20:43:36.652Z,12.50
2018-03-17T20:46:06.114Z,14.57
2018-03-17T20:48:35.278Z,13.50
2018-03-17T20:51:05.404Z,13.80
2018-03-17T20:53:34.640Z,15.40
2018-03-17T20:56:05.002Z,14.43
2018-03-17T20:58:34.370Z,14.53
2018-03-17T21:01:04.068Z,13.67
2018-03-17T21:03:33.257Z,14.17
2018-03-17T21:06:03.829Z,13.33
2018-03-17T21:08:32.891Z,14.47
2018-03-17T21:11:02.371Z,13.93
2018-03-17T21:13:32.255Z,14.90
2018-03-17T21:16:01.614Z,14.37
2018-03-17T21:18:30.889Z,14.87
2018-03-17T21:20:59.813Z,13.60
2018-03-17T21:23:28.734Z,14.13
2018-03-17T21:26:00.005Z,14.50
2018-03-17T21:28:28.975Z,16.03
2018-03-17T21:30:58.445Z,14.27
2018-03-17T21:33:27.777Z,14.30
2018-03-17T21:35:56.694Z,15.70
2018-03-17T21:38:25.622Z,15.73
2018-03-17T21:40:54.842Z,15.03
2018-03-17T21:43:23.824Z,18.37
2018-03-17T21:45:52.758Z,15.13
2018-03-17T21:48:22.032Z,15.70
2018-03-17T21:50:51.004Z,14.60
2018-03-17T21:53:20.044Z,16.07
2018-03-17T21:55:48.933Z,14.70
2018-03-17T21:58:17.933Z,15.87
2018-03-17T22:00:48.116Z,15.30
2018-03-17T22:03:16.994Z,15.60
2018-03-17T22:05:45.986Z,16.60
2018-03-17T22:08:15.536Z,16.63
2018-03-17T22:10:44.547Z,15.20
2018-03-17T22:13:13.458Z,17.00
2018-03-17T22:15:43.947Z,16.30
2018-03-17T22:18:12.788Z,15.03
2018-03-17T22:20:41.740Z,16.00
2018-03-17T22:23:10.661Z,15.50
2018-03-17T22:25:39.568Z,15.13
2018-03-17T22:28:08.906Z,15.57
2018-03-17T22:30:38.528Z,15.60
2018-03-17T22:33:09.913Z,15.40
2018-03-17T22:35:39.818Z,14.50
2018-03-17T22:38:08.869Z,15.20
2018-03-17T22:40:37.796Z,17.30
2018-03-17T22:43:07.129Z,17.43
2018-03-17T22:45:36.178Z,17.60
2018-03-17T22:48:05.851Z,17.33
2018-03-17T22:50:36.166Z,19.03
2018-03-17T22:53:06.089Z,19.40
2018-03-17T22:55:35.026Z,19.40
2018-03-17T22:58:05.482Z,18.83
2018-03-17T23:00:34.409Z,19.40
2018-03-17T23:03:03.879Z,19.00
2018-03-17T23:05:32.813Z,19.97
2018-03-17T23:08:04.889Z,21.10
2018-03-17T23:10:34.190Z,21.27
2018-03-17T23:13:03.203Z,22.53
2018-03-17T23:15:32.138Z,21.40
2018-03-17T23:18:01.784Z,22.23
2018-03-17T23:20:30.673Z,19.10
2018-03-17T23:22:59.644Z,19.20
2018-03-17T23:25:29.441Z,20.53
2018-03-17T23:27:58.379Z,20.50
2018-03-17T23:30:27.423Z,19.67
2018-03-17T23:32:57.160Z,18.87
2018-03-17T23:35:26.042Z,19.93
2018-03-17T23:37:54.978Z,21.50
2018-03-17T23:40:24.333Z,21.27
2018-03-17T23:42:53.461Z,20.53
2018-03-17T23:45:22.614Z,19.93
2018-03-17T23:47:51.842Z,20.80
2018-03-17T23:50:20.856Z,20.20
2018-03-17T23:52:50.173Z,20.93
2018-03-17T23:55:19.269Z,20.27
2018-03-17T23:57:48.294Z,20.30
